createdAt,value
2018-06-04T00:00:13.675Z,28.80
2018-06-04T00:02:42.850Z,26.57
2018-06-04T00:05:12.072Z,27.23
2018-06-04T00:07:41.212Z,27.00
2018-06-04T00:10:10.375Z,24.50
2018-06-04T00:12:39.536Z,28.10
2018-06-04T00:15:08.732Z,33.27
2018-06-04T00:17:37.864Z,26.60
2018-06-04T00:20:07.212Z,26.27
2018-06-04T00:22:36.431Z,25.40
2018-06-04T00:25:05.723Z,25.10
2018-06-04T00:27:34.862Z,24.60
2018-06-04T00:30:04.678Z,26.23
2018-06-04T00:32:33.895Z,25.93
2018-06-04T00:35:03.050Z,24.90
2018-06-04T00:37:32.284Z,27.33
2018-06-04T00:40:01.402Z,26.10
2018-06-04T00:42:30.558Z,25.10
2018-06-04T00:45:00.698Z,26.13
2018-06-04T00:47:29.868Z,28.00
2018-06-04T00:49:59.030Z,27.47
2018-06-04T00:52:28.199Z,28.67
2018-06-04T00:54:57.390Z,28.13
2018-06-04T00:57:26.579Z,29.97
2018-06-04T00:59:55.719Z,29.87
2018-06-04T01:02:24.863Z,31.33
2018-06-04T01:04:54.061Z,29.53
2018-06-04T01:07:23.297Z,30.87
2018-06-04T01:09:52.486Z,30.60
2018-06-04T01:12:21.652Z,29.97
2018-06-04T01:14:50.811Z,32.13
2018-06-04T01:17:19.973Z,33.10
2018-06-04T01:19:49.169Z,32.03
2018-06-04T01:22:18.328Z,32.53
2018-06-04T01:24:47.485Z,35.20
2018-06-04T01:27:16.666Z,34.63
2018-06-04T01:29:45.799Z,35.30
2018-06-04T01:32:14.958Z,36.00
2018-06-04T01:34:44.101Z,35.03
2018-06-04T01:37:13.255Z,36.00
2018-06-04T01:39:42.455Z,36.33
2018-06-04T01:42:11.569Z,35.90
2018-06-04T01:44:40.965Z,37.47
2018-06-04T01:47:10.129Z,37.07
2018-06-04T01:49:39.322Z,38.77
2018-06-04T01:52:08.493Z,36.10
2018-06-04T01:54:37.674Z,36.67
2018-06-04T01:57:06.865Z,36.20
2018-06-04T01:59:36.019Z,39.67
2018-06-04T02:02:05.181Z,36.43
2018-06-04T02:04:34.895Z,40.60
2018-06-04T02:07:04.046Z,38.77
2018-06-04T02:09:33.184Z,41.60
2018-06-04T02:12:02.367Z,40.73
2018-06-04T02:14:31.547Z,37.73
2018-06-04T02:17:00.718Z,39.33
2018-06-04T02:19:29.848Z,38.80
2018-06-04T02:21:59.018Z,42.43
2018-06-04T02:24:28.229Z,44.10
2018-06-04T02:26:57.406Z,41.53
2018-06-04T02:29:26.567Z,38.57
2018-06-04T02:31:56.292Z,42.33
2018-06-04T02:34:25.435Z,40.70
2018-06-04T02:36:54.582Z,40.67
2018-06-04T02:39:23.730Z,39.83
2018-06-04T02:41:52.866Z,41.70
2018-06-04T02:44:22.029Z,40.13
2018-06-04T02:46:51.179Z,41.40
2018-06-04T02:49:20.330Z,42.23
2018-06-04T02:51:49.485Z,43.20
2018-06-04T02:54:18.682Z,41.03
2018-06-04T02:56:47.819Z,43.13
2018-06-04T02:59:16.967Z,45.80
2018-06-04T03:01:46.161Z,43.83
2018-06-04T03:04:15.366Z,44.63
2018-06-04T03:06:44.594Z,44.70
2018-06-04T03:09:13.781Z,42.37
2018-06-04T03:11:42.948Z,40.80
2018-06-04T03:14:12.091Z,42.60
2018-06-04T03:16:41.390Z,44.97
2018-06-04T03:19:10.526Z,43.60
2018-06-04T03:21:39.669Z,40.43
2018-06-04T03:24:08.835Z,44.30
2018-06-04T03:26:38.002Z,40.47
2018-06-04T03:29:07.163Z,41.20
2018-06-04T03:31:37.210Z,40.60
2018-06-04T03:34:06.779Z,38.40
2018-06-04T03:36:36.630Z,39.27
2018-06-04T03:39:08.654Z,35.87
2018-06-04T03:41:37.831Z,34.13
2018-06-04T03:44:07.126Z,35.40
2018-06-04T03:46:36.288Z,33.77
2018-06-04T03:49:05.486Z,32.40
2018-06-04T03:51:34.654Z,31.87
2018-06-04T03:54:03.867Z,30.90
2018-06-04T03:56:33.080Z,29.20
2018-06-04T03:59:02.332Z,26.03
2018-06-04T04:01:31.487Z,25.23
2018-06-04T04:04:00.666Z,24.93
2018-06-04T04:06:29.886Z,22.00
2018-06-04T04:08:59.097Z,22.97
2018-06-04T04:11:29.014Z,22.70
2018-06-04T04:13:58.210Z,22.90
2018-06-04T04:16:27.379Z,21.63
2018-06-04T04:18:56.595Z,19.17
2018-06-04T04:21:26.167Z,20.43
2018-06-04T04:23:55.375Z,18.73
2018-06-04T04:26:24.856Z,18.10
2018-06-04T04:28:54.854Z,19.63
2018-06-04T04:31:24.093Z,18.73
2018-06-04T04:33:53.282Z,16.53
2018-06-04T04:36:22.501Z,16.77
2018-06-04T04:38:51.618Z,17.53
2018-06-04T04:41:20.792Z,19.23
2018-06-04T04:43:49.931Z,16.30
2018-06-04T04:46:19.139Z,15.13
2018-06-04T04:48:48.296Z,15.77
2018-06-04T04:51:17.475Z,16.27
2018-06-04T04:53:46.660Z,15.77
2018-06-04T04:56:15.828Z,16.53
2018-06-04T04:58:44.990Z,16.67
2018-06-04T05:01:14.165Z,16.60
2018-06-04T05:03:43.390Z,14.73
2018-06-04T05:06:12.928Z,14.97
2018-06-04T05:08:42.095Z,15.00
2018-06-04T05:11:11.239Z,13.40
2018-06-04T05:13:40.423Z,13.17
2018-06-04T05:16:09.851Z,14.27
2018-06-04T05:18:39.020Z,13.87
2018-06-04T05:21:08.164Z,11.77
2018-06-04T05:23:37.318Z,11.20
2018-06-04T05:26:06.722Z,10.97
2018-06-04T05:28:35.834Z,12.17
2018-06-04T05:31:04.978Z,10.00
2018-06-04T05:33:34.138Z,10.70
2018-06-04T05:36:03.279Z,11.47
2018-06-04T05:38:32.438Z,11.50
2018-06-04T05:41:01.627Z,11.90
2018-06-04T05:43:30.787Z,10.93
2018-06-04T05:46:00.023Z,10.77
2018-06-04T05:48:29.214Z,10.37
2018-06-04T05:50:58.405Z,9.53
2018-06-04T05:53:27.559Z,9.87
2018-06-04T05:55:56.768Z,10.43
2018-06-04T05:58:25.890Z,10.37
2018-06-04T06:00:55.080Z,8.27
2018-06-04T06:03:24.207Z,8.70
2018-06-04T06:05:53.331Z,8.60
2018-06-04T06:08:22.474Z,8.10
2018-06-04T06:10:51.672Z,8.97
2018-06-04T06:13:20.819Z,8.80
2018-06-04T06:15:50.367Z,8.60
2018-06-04T06:18:19.531Z,8.47
2018-06-04T06:20:48.687Z,7.73
2018-06-04T06:23:17.842Z,8.30
2018-06-04T06:25:47.010Z,9.50
2018-06-04T06:28:16.134Z,7.83
2018-06-04T06:30:45.296Z,7.50
2018-06-04T06:33:14.461Z,6.70
2018-06-04T06:35:43.631Z,7.87
2018-06-04T06:38:12.799Z,7.50
2018-06-04T06:40:41.951Z,8.10
2018-06-04T06:43:11.124Z,7.13
2018-06-04T06:45:40.307Z,7.93
2018-06-04T06:48:09.502Z,6.93
2018-06-04T06:50:39.282Z,7.30
2018-06-04T06:53:08.452Z,7.17
2018-06-04T06:55:37.699Z,7.30
2018-06-04T06:58:06.867Z,7.03
2018-06-04T07:00:36.041Z,7.63
2018-06-04T07:03:05.242Z,7.30
2018-06-04T07:05:34.448Z,7.30
2018-06-04T07:08:03.601Z,7.10
2018-06-04T07:10:32.782Z,7.30
2018-06-04T07:13:01.974Z,7.57
2018-06-04T07:15:31.152Z,7.23
2018-06-04T07:18:00.317Z,7.57
2018-06-04T07:20:29.488Z,8.20
2018-06-04T07:22:58.641Z,7.33
2018-06-04T07:25:27.786Z,6.40
2018-06-04T07:27:56.961Z,6.30
2018-06-04T07:30:26.136Z,7.20
2018-06-04T07:32:55.347Z,6.63
2018-06-04T07:35:24.536Z,6.57
2018-06-04T07:37:53.812Z,6.93
2018-06-04T07:40:22.981Z,5.50
2018-06-04T07:42:52.183Z,6.67
2018-06-04T07:45:21.392Z,6.20
2018-06-04T07:47:50.612Z,6.10
2018-06-04T07:50:19.747Z,6.17
2018-06-04T07:52:48.921Z,6.80
2018-06-04T07:55:18.066Z,5.60
2018-06-04T07:57:47.267Z,5.70
2018-06-04T08:00:16.482Z,5.37
2018-06-04T08:02:45.645Z,5.87
2018-06-04T08:05:14.917Z,5.67
2018-06-04T08:07:44.094Z,5.00
2018-06-04T08:10:13.359Z,6.00
2018-06-04T08:12:42.442Z,5.67
2018-06-04T08:15:11.746Z,4.83
2018-06-04T08:17:40.944Z,5.60
2018-06-04T08:20:10.124Z,7.00
2018-06-04T08:22:39.276Z,6.10
2018-06-04T08:25:08.433Z,5.70
2018-06-04T08:27:37.582Z,5.90
2018-06-04T08:30:06.773Z,6.60
2018-06-04T08:32:35.906Z,5.97
2018-06-04T08:35:05.059Z,7.13
2018-06-04T08:37:34.204Z,8.23
2018-06-04T08:40:03.529Z,8.60
2018-06-04T08:42:32.671Z,8.87
2018-06-04T08:45:01.834Z,9.80
2018-06-04T08:47:30.992Z,11.93
2018-06-04T08:50:00.146Z,11.07
2018-06-04T08:52:29.286Z,11.50
2018-06-04T08:54:58.462Z,9.40
2018-06-04T08:57:27.623Z,10.20
2018-06-04T08:59:56.801Z,10.30
2018-06-04T09:02:26.000Z,7.73
2018-06-04T09:04:55.155Z,7.50
2018-06-04T09:07:24.326Z,7.33
2018-06-04T09:09:53.514Z,8.77
2018-06-04T09:12:22.723Z,9.10
2018-06-04T09:14:51.832Z,8.50
2018-06-04T09:17:20.965Z,9.00
2018-06-04T09:19:50.163Z,8.30
2018-06-04T09:22:19.329Z,9.40
2018-06-04T09:24:48.498Z,9.20
2018-06-04T09:27:17.617Z,8.60
2018-06-04T09:29:46.809Z,8.60
2018-06-04T09:32:16.009Z,9.57
2018-06-04T09:34:45.188Z,9.17
2018-06-04T09:37:14.356Z,8.23
2018-06-04T09:39:43.598Z,8.00
2018-06-04T09:42:12.782Z,7.60
2018-06-04T09:44:41.993Z,7.30
2018-06-04T09:47:11.142Z,5.70
2018-06-04T09:49:40.341Z,6.00
2018-06-04T09:52:09.627Z,7.53
2018-06-04T09:54:38.810Z,7.60
2018-06-04T09:57:07.932Z,7.30
2018-06-04T09:59:37.089Z,7.60
2018-06-04T10:02:06.210Z,7.13
2018-06-04T10:04:35.373Z,7.17
2018-06-04T10:07:04.584Z,5.30
2018-06-04T10:09:33.720Z,6.10
2018-06-04T10:12:02.904Z,6.77
2018-06-04T10:14:32.093Z,7.60
2018-06-04T10:17:01.223Z,7.77
2018-06-04T10:19:30.372Z,8.00
2018-06-04T10:21:59.537Z,7.70
2018-06-04T10:24:28.764Z,7.60
2018-06-04T10:26:57.922Z,8.07
2018-06-04T10:29:27.056Z,7.83
2018-06-04T10:31:56.218Z,7.60
2018-06-04T10:34:25.342Z,8.30
2018-06-04T10:36:54.511Z,9.37
2018-06-04T10:39:23.651Z,8.37
2018-06-04T10:41:52.863Z,7.13
2018-06-04T10:44:22.004Z,7.80
2018-06-04T10:46:51.187Z,6.33
2018-06-04T10:49:20.382Z,5.80
2018-06-04T10:51:49.534Z,7.53
2018-06-04T10:54:18.686Z,7.60
2018-06-04T10:56:47.941Z,7.13
2018-06-04T10:59:17.130Z,6.57
2018-06-04T11:01:46.245Z,7.00
2018-06-04T11:04:14.761Z,8.23
2018-06-04T11:06:43.071Z,8.80
2018-06-04T11:09:11.314Z,8.30
2018-06-04T11:11:39.522Z,7.03
2018-06-04T11:14:07.903Z,7.60
2018-06-04T11:16:36.154Z,8.83
2018-06-04T11:19:04.382Z,7.13
2018-06-04T11:21:32.630Z,6.90
2018-06-04T11:24:00.896Z,5.60
2018-06-04T11:26:29.107Z,6.37
2018-06-04T11:28:57.357Z,6.30
2018-06-04T11:31:25.623Z,7.67
2018-06-04T11:33:53.877Z,6.30
2018-06-04T11:36:22.112Z,7.30
2018-06-04T11:38:50.353Z,7.03
2018-06-04T11:41:18.601Z,7.53
2018-06-04T11:43:46.952Z,8.80
2018-06-04T11:46:15.214Z,9.17
2018-06-04T11:48:43.455Z,8.67
2018-06-04T11:51:11.722Z,9.10
2018-06-04T11:53:39.914Z,9.13
2018-06-04T11:56:08.171Z,10.03
2018-06-04T11:58:36.427Z,8.83
2018-06-04T12:01:04.690Z,8.37
2018-06-04T12:03:32.942Z,9.00
2018-06-04T12:06:01.170Z,9.00
2018-06-04T12:08:29.402Z,37.20
2018-06-04T12:10:57.661Z,12.30
2018-06-04T12:13:25.902Z,9.10
2018-06-04T12:15:54.145Z,9.37
2018-06-04T12:18:22.366Z,8.77
2018-06-04T12:20:50.644Z,8.90
2018-06-04T12:23:18.857Z,8.27
2018-06-04T12:25:47.073Z,8.60
2018-06-04T12:28:15.387Z,8.43
2018-06-04T12:30:43.666Z,8.70
2018-06-04T12:33:11.901Z,8.63
2018-06-04T12:35:40.158Z,8.40
2018-06-04T12:38:08.414Z,9.47
2018-06-04T12:40:36.694Z,8.20
2018-06-04T12:43:04.974Z,7.57
2018-06-04T12:45:33.225Z,7.17
2018-06-04T12:48:01.627Z,7.57
2018-06-04T12:50:29.898Z,7.80
2018-06-04T12:52:58.177Z,7.50
2018-06-04T12:55:26.464Z,8.33
2018-06-04T12:57:54.768Z,7.40
2018-06-04T13:00:23.007Z,8.00
2018-06-04T13:02:51.272Z,7.60
2018-06-04T13:05:19.731Z,7.90
2018-06-04T13:07:47.952Z,8.90
2018-06-04T13:10:16.217Z,9.93
2018-06-04T13:12:44.462Z,13.07
2018-06-04T13:15:12.744Z,10.43
2018-06-04T13:17:41.745Z,8.40
2018-06-04T13:20:10.008Z,9.30
2018-06-04T13:22:38.234Z,9.60
2018-06-04T13:25:06.490Z,8.47
2018-06-04T13:27:34.784Z,8.07
2018-06-04T13:30:03.053Z,7.97
2018-06-04T13:32:31.321Z,7.80
2018-06-04T13:34:59.540Z,8.27
2018-06-04T13:37:27.792Z,7.87
2018-06-04T13:39:56.049Z,7.90
2018-06-04T13:42:24.327Z,8.90
2018-06-04T13:44:52.565Z,9.10
2018-06-04T13:47:20.767Z,7.67
2018-06-04T13:49:49.019Z,7.70
2018-06-04T13:52:17.246Z,8.17
2018-06-04T13:54:45.275Z,7.77
2018-06-04T13:57:13.536Z,7.00
2018-06-04T13:59:41.752Z,6.77
2018-06-04T14:02:10.021Z,7.27
2018-06-04T14:04:38.301Z,8.40
2018-06-04T14:07:06.552Z,7.80
2018-06-04T14:09:34.769Z,7.80
2018-06-04T14:12:03.088Z,8.23
2018-06-04T14:14:31.298Z,9.63
2018-06-04T14:16:59.557Z,8.03
2018-06-04T14:19:27.807Z,8.30
2018-06-04T14:21:56.042Z,8.27
2018-06-04T14:24:24.277Z,8.30
2018-06-04T14:26:52.479Z,8.73
2018-06-04T14:29:20.680Z,8.53
2018-06-04T14:31:48.917Z,7.47
2018-06-04T14:34:17.527Z,8.97
2018-06-04T14:36:45.769Z,7.47
2018-06-04T14:39:14.006Z,9.13
2018-06-04T14:41:42.258Z,8.47
2018-06-04T14:44:10.468Z,9.20
2018-06-04T14:46:38.682Z,8.20
2018-06-04T14:49:06.929Z,7.60
2018-06-04T14:51:35.266Z,9.47
2018-06-04T14:54:03.528Z,9.63
2018-06-04T14:56:31.849Z,15.90
2018-06-04T14:59:00.116Z,9.70
2018-06-04T15:01:28.348Z,9.30
2018-06-04T15:03:56.635Z,8.33
2018-06-04T15:06:24.905Z,8.30
2018-06-04T15:08:53.161Z,8.17
2018-06-04T15:11:21.458Z,7.33
2018-06-04T15:13:49.707Z,8.20
2018-06-04T15:16:17.971Z,8.20
2018-06-04T15:18:46.361Z,9.20
2018-06-04T15:21:15.404Z,8.70
2018-06-04T15:23:44.717Z,8.80
2018-06-04T15:26:14.115Z,8.17
2018-06-04T15:28:43.111Z,9.00
2018-06-04T15:31:13.772Z,9.80
2018-06-04T15:33:42.934Z,8.63
2018-06-04T15:36:12.068Z,8.33
2018-06-04T15:38:41.539Z,10.23
2018-06-04T15:41:10.714Z,12.70
2018-06-04T15:43:40.615Z,14.10
2018-06-04T15:46:09.254Z,9.90
2018-06-04T15:48:38.226Z,12.57
2018-06-04T15:51:07.482Z,13.83
2018-06-04T15:53:36.759Z,10.10
2018-06-04T15:56:05.935Z,12.40
2018-06-04T15:58:35.078Z,11.47
2018-06-04T16:01:04.329Z,10.00
2018-06-04T16:03:33.518Z,9.40
2018-06-04T16:06:02.714Z,10.50
2018-06-04T16:08:31.739Z,10.83
2018-06-04T16:11:00.792Z,11.33
2018-06-04T16:13:29.990Z,10.93
2018-06-04T16:15:59.099Z,11.40
2018-06-04T16:18:28.082Z,11.67
2018-06-04T16:20:57.398Z,11.37
2018-06-04T16:23:26.421Z,19.73
2018-06-04T16:25:55.697Z,27.43
2018-06-04T16:28:25.021Z,16.10
2018-06-04T16:30:54.145Z,11.93
2018-06-04T16:33:23.207Z,10.70
2018-06-04T16:35:52.593Z,9.93
2018-06-04T16:38:21.680Z,12.10
2018-06-04T16:40:50.968Z,10.67
2018-06-04T16:43:20.049Z,10.90
2018-06-04T16:45:49.156Z,11.27
2018-06-04T16:48:18.115Z,10.80
2018-06-04T16:50:47.350Z,10.67
2018-06-04T16:53:16.364Z,11.20
2018-06-04T16:55:46.572Z,11.40
2018-06-04T16:58:15.361Z,11.23
2018-06-04T17:00:44.456Z,10.53
2018-06-04T17:03:13.686Z,11.00
2018-06-04T17:05:43.072Z,10.33
2018-06-04T17:08:12.534Z,10.23
2018-06-04T17:10:41.869Z,9.63
2018-06-04T17:13:11.265Z,9.77
2018-06-04T17:15:40.511Z,9.47
2018-06-04T17:18:09.528Z,8.53
2018-06-04T17:20:38.654Z,10.80
2018-06-04T17:23:07.759Z,11.00
2018-06-04T17:25:37.163Z,9.70
2018-06-04T17:28:06.405Z,7.43
2018-06-04T17:30:35.639Z,7.80
2018-06-04T17:33:04.894Z,6.40
2018-06-04T17:35:34.163Z,8.10
2018-06-04T17:38:03.290Z,6.43
2018-06-04T17:40:32.747Z,6.37
2018-06-04T17:43:01.990Z,5.93
2018-06-04T17:45:31.342Z,5.80
2018-06-04T17:48:00.488Z,5.80
2018-06-04T17:50:29.649Z,6.20
2018-06-04T17:52:59.197Z,6.30
2018-06-04T17:55:28.347Z,5.90
2018-06-04T17:57:57.520Z,6.10
2018-06-04T18:00:27.192Z,6.83
2018-06-04T18:02:56.202Z,7.23
2018-06-04T18:05:26.201Z,8.03
2018-06-04T18:07:55.714Z,7.07
2018-06-04T18:10:25.316Z,7.30
2018-06-04T18:12:54.475Z,6.70
2018-06-04T18:15:23.745Z,5.90
2018-06-04T18:17:52.962Z,5.87
2018-06-04T18:20:22.282Z,6.13
2018-06-04T18:22:51.374Z,5.13
2018-06-04T18:25:20.507Z,6.13
2018-06-04T18:27:49.565Z,5.27
2018-06-04T18:30:18.665Z,5.50
2018-06-04T18:32:49.426Z,4.83
2018-06-04T18:35:18.621Z,7.80
2018-06-04T18:37:47.314Z,7.77
2018-06-04T18:40:15.688Z,5.50
2018-06-04T18:42:43.998Z,6.13
2018-06-04T18:45:12.320Z,7.47
2018-06-04T18:47:40.680Z,6.67
2018-06-04T18:50:08.981Z,8.10
2018-06-04T18:52:37.293Z,6.40
2018-06-04T18:55:05.635Z,7.80
2018-06-04T18:57:34.033Z,6.87
2018-06-04T19:00:02.330Z,8.43
2018-06-04T19:02:30.992Z,8.20
2018-06-04T19:04:59.583Z,8.83
2018-06-04T19:07:28.087Z,8.17
2018-06-04T19:09:56.466Z,9.50
2018-06-04T19:12:24.956Z,10.80
2018-06-04T19:14:53.329Z,9.53
2018-06-04T19:17:21.663Z,10.70
2018-06-04T19:19:51.514Z,10.23
2018-06-04T19:22:20.326Z,12.40
2018-06-04T19:24:48.627Z,10.10
2018-06-04T19:27:17.071Z,8.73
2018-06-04T19:29:45.470Z,12.00
2018-06-04T19:32:14.085Z,11.73
2018-06-04T19:34:43.091Z,16.90
2018-06-04T19:37:11.590Z,16.00
2018-06-04T19:39:39.954Z,15.57
2018-06-04T19:42:08.228Z,14.40
2018-06-04T19:44:36.588Z,14.47
2018-06-04T19:47:05.052Z,15.90
2018-06-04T19:49:33.141Z,16.43
2018-06-04T19:52:01.435Z,16.70
2018-06-04T19:54:29.681Z,16.87
2018-06-04T19:56:58.866Z,16.00
2018-06-04T19:59:27.803Z,15.70
2018-06-04T20:01:56.227Z,17.63
2018-06-04T20:04:24.501Z,17.37
2018-06-04T20:06:56.953Z,18.50
2018-06-04T20:09:25.700Z,17.63
2018-06-04T20:11:55.688Z,18.50
2018-06-04T20:14:24.361Z,17.33
2018-06-04T20:16:55.614Z,19.10
2018-06-04T20:19:26.885Z,22.20
2018-06-04T20:21:56.641Z,21.37
2018-06-04T20:24:26.091Z,19.43
2018-06-04T20:26:54.528Z,19.90
2018-06-04T20:29:22.788Z,20.77
2018-06-04T20:31:51.959Z,18.80
2018-06-04T20:34:21.190Z,22.80
2018-06-04T20:36:50.514Z,21.40
2018-06-04T20:39:19.587Z,20.07
2018-06-04T20:41:48.959Z,22.20
2018-06-04T20:44:18.260Z,21.40
2018-06-04T20:46:47.883Z,19.93
2018-06-04T20:49:16.892Z,22.63
2018-06-04T20:51:46.351Z,20.00
2018-06-04T20:54:15.663Z,19.73
2018-06-04T20:56:44.759Z,17.87
2018-06-04T20:59:13.886Z,18.60
2018-06-04T21:01:43.216Z,17.47
2018-06-04T21:04:12.366Z,19.83
2018-06-04T21:06:41.513Z,19.03
2018-06-04T21:09:10.987Z,21.33
2018-06-04T21:11:40.725Z,18.30
2018-06-04T21:14:10.150Z,18.00
2018-06-04T21:16:39.212Z,18.10
2018-06-04T21:19:08.151Z,18.87
2018-06-04T21:21:37.219Z,17.67
2018-06-04T21:24:06.333Z,18.93
2018-06-04T21:26:35.324Z,18.20
2018-06-04T21:29:04.344Z,20.80
2018-06-04T21:31:33.415Z,21.53
2018-06-04T21:34:02.526Z,18.30
2018-06-04T21:36:31.802Z,17.80
2018-06-04T21:39:00.953Z,18.80
2018-06-04T21:41:31.336Z,18.00
2018-06-04T21:44:00.507Z,18.17
2018-06-04T21:46:29.661Z,17.40
2018-06-04T21:48:58.736Z,19.20
2018-06-04T21:51:28.552Z,19.80
2018-06-04T21:53:57.614Z,20.70
2018-06-04T21:56:26.738Z,18.13
2018-06-04T21:58:56.171Z,20.73
2018-06-04T22:01:25.376Z,20.40
2018-06-04T22:03:54.475Z,18.10
2018-06-04T22:06:23.619Z,16.90
2018-06-04T22:08:52.715Z,17.20
2018-06-04T22:11:21.970Z,16.80
2018-06-04T22:13:50.923Z,17.30
2018-06-04T22:16:20.160Z,17.47
2018-06-04T22:18:49.188Z,18.17
2018-06-04T22:21:18.386Z,16.77
2018-06-04T22:23:47.650Z,20.77
2018-06-04T22:26:17.037Z,16.30
2018-06-04T22:28:46.376Z,16.97
2018-06-04T22:31:15.406Z,18.20
2018-06-04T22:33:44.955Z,17.77
2018-06-04T22:36:14.012Z,17.00
2018-06-04T22:38:42.947Z,18.43
2018-06-04T22:41:12.109Z,17.63
2018-06-04T22:43:41.109Z,18.50
2018-06-04T22:46:10.128Z,19.77
2018-06-04T22:48:39.324Z,19.13
2018-06-04T22:51:08.727Z,19.40
2018-06-04T22:53:37.880Z,20.77
2018-06-04T22:56:07.270Z,19.90
2018-06-04T22:58:36.191Z,20.50
2018-06-04T23:01:04.556Z,22.70
2018-06-04T23:03:32.801Z,19.60
2018-06-04T23:06:01.093Z,20.27
2018-06-04T23:08:29.353Z,22.03
2018-06-04T23:10:57.606Z,20.37
2018-06-04T23:13:25.854Z,21.70
2018-06-04T23:15:54.124Z,21.03
2018-06-04T23:18:22.369Z,22.60
2018-06-04T23:20:50.643Z,22.77
2018-06-04T23:23:19.182Z,21.67
2018-06-04T23:25:47.421Z,21.10
2018-06-04T23:28:15.676Z,24.97
2018-06-04T23:30:43.932Z,23.67
2018-06-04T23:33:12.212Z,26.57
2018-06-04T23:35:40.532Z,25.83
2018-06-04T23:38:08.773Z,24.80
2018-06-04T23:40:37.081Z,25.87
2018-06-04T23:43:05.326Z,26.43
2018-06-04T23:45:33.619Z,25.63
2018-06-04T23:48:01.845Z,26.90
2018-06-04T23:50:30.109Z,26.90
2018-06-04T23:52:58.337Z,24.57
2018-06-04T23:55:26.665Z,25.67
2018-06-04T23:57:55.018Z,23.97
